createdAt,value
2023-02-24T00:02:01.753Z,9.20
2023-02-24T00:04:31.849Z,9.00
2023-02-24T00:07:03.291Z,8.80
2023-02-24T00:09:33.680Z,8.90
2023-02-24T00:12:04.811Z,8.60
2023-02-24T00:14:38.391Z,8.50
2023-02-24T00:17:08.037Z,8.50
2023-02-24T00:19:38.314Z,8.70
2023-02-24T00:22:08.707Z,8.80
2023-02-24T00:24:36.952Z,9.10
2023-02-24T00:27:08.186Z,9.40
2023-02-24T00:29:42.704Z,9.60
2023-02-24T00:32:13.456Z,9.80
2023-02-24T00:34:43.056Z,9.90
2023-02-24T00:37:12.016Z,10.10
2023-02-24T00:39:41.481Z,10.20
2023-02-24T00:42:12.684Z,10.30
2023-02-24T00:44:46.712Z,10.30
2023-02-24T00:47:18.286Z,10.50
2023-02-24T00:49:48.682Z,10.50
2023-02-24T00:52:20.154Z,10.40
2023-02-24T00:54:49.385Z,10.30
2023-02-24T00:57:21.058Z,10.30
2023-02-24T00:59:55.821Z,10.30
2023-02-24T01:02:24.120Z,10.40
2023-02-24T01:04:52.772Z,10.50
2023-02-24T01:07:21.599Z,10.40
2023-02-24T01:09:51.543Z,10.50
2023-02-24T01:12:33.979Z,10.40
2023-02-24T01:15:06.791Z,10.30
2023-02-24T01:17:37.131Z,10.30
2023-02-24T01:20:16.929Z,10.20
2023-02-24T01:22:47.886Z,10.10
2023-02-24T01:25:19.985Z,9.70
2023-02-24T01:27:49.957Z,9.60
2023-02-24T01:30:20.627Z,9.40
2023-02-24T01:32:49.377Z,9.20
2023-02-24T01:35:18.328Z,9.20
2023-02-24T01:37:46.943Z,9.40
2023-02-24T01:40:21.818Z,9.50
2023-02-24T01:42:52.131Z,9.70
2023-02-24T01:45:26.896Z,9.90
2023-02-24T01:48:01.225Z,9.90
2023-02-24T01:50:30.366Z,10.00
2023-02-24T01:53:04.207Z,10.10
2023-02-24T01:55:36.734Z,10.00
2023-02-24T01:58:14.174Z,9.80
2023-02-24T02:00:47.097Z,9.70
2023-02-24T02:03:24.496Z,9.40
2023-02-24T02:05:54.322Z,9.00
2023-02-24T02:08:25.159Z,8.80
2023-02-24T02:10:58.703Z,8.80
2023-02-24T02:13:28.574Z,8.80
2023-02-24T02:16:20.522Z,8.80
2023-02-24T02:18:59.499Z,8.80
2023-02-24T02:21:59.719Z,8.80
2023-02-24T02:24:39.187Z,9.10
2023-02-24T02:27:29.438Z,9.10
2023-02-24T02:30:25.557Z,9.00
2023-02-24T02:33:16.040Z,9.10
2023-02-24T02:35:54.699Z,9.30
2023-02-24T02:38:27.963Z,9.50
2023-02-24T02:41:07.411Z,9.30
2023-02-24T02:43:41.737Z,9.40
2023-02-24T02:46:18.184Z,9.60
2023-02-24T02:48:52.471Z,9.70
2023-02-24T02:51:28.844Z,9.60
2023-02-24T02:54:01.724Z,9.50
2023-02-24T02:56:35.383Z,9.50
2023-02-24T02:59:05.385Z,9.40
2023-02-24T03:01:39.340Z,9.50
2023-02-24T03:04:10.841Z,9.70
2023-02-24T03:06:51.918Z,9.70
2023-02-24T03:09:28.938Z,9.80
2023-02-24T03:12:02.554Z,9.80
2023-02-24T03:14:37.929Z,10.00
2023-02-24T03:17:10.732Z,10.00
2023-02-24T03:19:40.909Z,9.70
2023-02-24T03:22:18.147Z,9.80
2023-02-24T03:24:47.920Z,9.90
2023-02-24T03:27:30.961Z,10.00
2023-02-24T03:30:06.135Z,10.20
2023-02-24T03:32:43.843Z,10.20
2023-02-24T03:35:18.339Z,10.20
2023-02-24T03:37:49.809Z,10.20
2023-02-24T03:40:21.155Z,10.20
2023-02-24T03:42:51.867Z,10.30
2023-02-24T03:45:24.228Z,10.30
2023-02-24T03:47:54.477Z,10.30
2023-02-24T03:50:29.216Z,10.40
2023-02-24T03:53:13.904Z,10.30
2023-02-24T03:55:59.158Z,10.10
2023-02-24T03:58:41.580Z,10.00
2023-02-24T04:01:14.476Z,10.10
2023-02-24T04:03:50.746Z,10.20
2023-02-24T04:06:37.574Z,10.30
2023-02-24T04:09:17.536Z,10.30
2023-02-24T04:11:59.140Z,10.40
2023-02-24T04:14:34.681Z,10.30
2023-02-24T04:17:08.930Z,10.20
2023-02-24T04:19:43.139Z,10.00
2023-02-24T04:22:16.482Z,9.90
2023-02-24T04:24:52.499Z,9.90
2023-02-24T04:27:21.766Z,9.90
2023-02-24T04:29:55.252Z,10.00
2023-02-24T04:32:27.570Z,10.00
2023-02-24T04:35:04.618Z,9.90
2023-02-24T04:37:33.846Z,9.80
2023-02-24T04:40:11.004Z,9.90
2023-02-24T04:42:46.566Z,10.00
2023-02-24T04:45:16.448Z,9.90
2023-02-24T04:47:49.463Z,9.50
2023-02-24T04:50:25.277Z,9.40
2023-02-24T04:52:55.764Z,9.20
2023-02-24T04:55:29.774Z,9.10
2023-02-24T04:57:59.734Z,9.10
2023-02-24T05:00:36.360Z,9.00
2023-02-24T05:03:06.275Z,9.30
2023-02-24T05:05:34.847Z,9.10
2023-02-24T05:08:07.866Z,8.80
2023-02-24T05:10:40.084Z,8.50
2023-02-24T05:13:10.921Z,8.30
2023-02-24T05:15:42.145Z,8.50
2023-02-24T05:18:15.659Z,8.30
2023-02-24T05:21:06.000Z,8.60
2023-02-24T05:23:39.608Z,8.80
2023-02-24T05:26:09.716Z,8.80
2023-02-24T05:28:38.196Z,8.90
2023-02-24T05:31:11.018Z,9.10
2023-02-24T05:33:40.508Z,9.20
2023-02-24T05:36:16.613Z,9.30
2023-02-24T05:38:45.925Z,9.30
2023-02-24T05:41:17.795Z,9.50
2023-02-24T05:43:48.443Z,9.50
2023-02-24T05:46:17.671Z,9.60
2023-02-24T05:48:51.118Z,9.30
2023-02-24T05:51:19.655Z,9.20
2023-02-24T05:53:48.489Z,8.70
2023-02-24T05:56:20.185Z,8.60
2023-02-24T05:58:49.974Z,8.60
2023-02-24T06:01:21.583Z,8.60
2023-02-24T06:03:50.633Z,8.50
2023-02-24T06:06:18.886Z,8.60
2023-02-24T06:08:50.984Z,8.30
2023-02-24T06:11:22.109Z,8.20
2023-02-24T06:13:50.916Z,8.60
2023-02-24T06:16:20.314Z,8.70
2023-02-24T06:18:50.807Z,8.90
2023-02-24T06:21:20.528Z,8.70
2023-02-24T06:23:49.205Z,8.40
2023-02-24T06:26:19.354Z,8.50
2023-02-24T06:28:50.212Z,8.70
2023-02-24T06:31:18.789Z,8.70
2023-02-24T06:33:46.951Z,8.50
2023-02-24T06:36:16.094Z,7.80
2023-02-24T06:38:45.222Z,7.80
2023-02-24T06:41:14.196Z,8.00
2023-02-24T06:43:44.665Z,7.70
2023-02-24T06:46:17.024Z,7.80
2023-02-24T06:48:46.394Z,7.90
2023-02-24T06:51:17.163Z,7.90
2023-02-24T06:53:46.360Z,8.20
2023-02-24T06:56:20.371Z,8.20
2023-02-24T06:58:50.911Z,8.30
2023-02-24T07:01:26.367Z,8.10
2023-02-24T07:04:14.919Z,8.20
2023-02-24T07:06:45.614Z,8.10
2023-02-24T07:09:16.705Z,7.50
2023-02-24T07:11:48.402Z,7.60
2023-02-24T07:14:17.328Z,7.50
2023-02-24T07:16:47.569Z,7.20
2023-02-24T07:19:20.148Z,7.20
2023-02-24T07:21:52.878Z,7.50
2023-02-24T07:24:32.780Z,7.60
2023-02-24T07:27:03.325Z,7.70
2023-02-24T07:29:33.580Z,7.90
2023-02-24T07:32:06.459Z,7.90
2023-02-24T07:34:39.699Z,7.90
2023-02-24T07:37:10.325Z,7.90
2023-02-24T07:39:40.111Z,7.80
2023-02-24T07:42:11.729Z,7.80
2023-02-24T07:44:46.419Z,8.00
2023-02-24T07:47:16.527Z,7.80
2023-02-24T07:49:45.395Z,7.50
2023-02-24T07:52:14.712Z,7.50
2023-02-24T07:54:43.090Z,7.40
2023-02-24T07:57:13.533Z,7.40
2023-02-24T07:59:48.557Z,7.40
2023-02-24T08:02:18.252Z,7.30
2023-02-24T08:04:51.348Z,7.40
2023-02-24T08:07:24.320Z,7.40
2023-02-24T08:10:14.797Z,7.00
2023-02-24T08:12:47.405Z,6.70
2023-02-24T08:15:24.850Z,6.70
2023-02-24T08:17:59.837Z,7.00
2023-02-24T08:20:35.983Z,7.20
2023-02-24T08:23:08.554Z,7.10
2023-02-24T08:25:37.839Z,7.00
2023-02-24T08:28:11.164Z,7.10
2023-02-24T08:30:46.310Z,7.00
2023-02-24T08:33:21.861Z,7.20
2023-02-24T08:36:02.688Z,7.00
2023-02-24T08:38:41.728Z,6.80
2023-02-24T08:41:18.625Z,6.60
2023-02-24T08:43:49.185Z,6.50
2023-02-24T08:46:21.432Z,6.70
2023-02-24T08:48:55.396Z,6.40
2023-02-24T08:51:29.406Z,6.70
2023-02-24T08:54:01.008Z,6.80
2023-02-24T08:56:35.120Z,6.70
2023-02-24T08:59:06.450Z,6.70
2023-02-24T09:01:37.320Z,6.70
2023-02-24T09:04:09.492Z,6.20
2023-02-24T09:06:45.198Z,6.50
2023-02-24T09:09:18.612Z,6.50
2023-02-24T09:11:49.680Z,6.70
2023-02-24T09:14:27.477Z,6.50
2023-02-24T09:17:05.789Z,6.50
2023-02-24T09:19:56.538Z,6.60
2023-02-24T09:22:41.293Z,6.50
2023-02-24T09:25:18.684Z,6.90
2023-02-24T09:27:52.368Z,6.80
2023-02-24T09:30:38.276Z,6.90
2023-02-24T09:33:18.239Z,7.00
2023-02-24T09:35:51.679Z,7.30
2023-02-24T09:38:36.813Z,6.90
2023-02-24T09:41:29.860Z,6.50
2023-02-24T09:44:03.464Z,6.40
2023-02-24T09:46:39.180Z,5.80
2023-02-24T09:49:17.581Z,5.90
2023-02-24T09:51:56.649Z,6.20
2023-02-24T09:54:26.390Z,6.10
2023-02-24T09:57:08.596Z,6.20
2023-02-24T10:00:00.968Z,6.10
2023-02-24T10:02:44.956Z,6.10
2023-02-24T10:08:44.391Z,6.40
2023-02-24T10:11:13.565Z,6.20
2023-02-24T10:13:50.403Z,6.10
2023-02-24T10:16:24.550Z,6.00
2023-02-24T10:19:01.117Z,5.80
2023-02-24T10:21:48.754Z,5.80
2023-02-24T10:24:29.190Z,5.80
2023-02-24T10:27:08.471Z,5.70
2023-02-24T10:29:50.767Z,5.90
2023-02-24T10:32:24.554Z,5.70
2023-02-24T10:34:53.593Z,5.90
2023-02-24T10:37:28.649Z,6.20
2023-02-24T10:40:00.726Z,5.60
2023-02-24T10:42:32.474Z,5.90
2023-02-24T10:45:18.029Z,6.10
2023-02-24T10:47:57.001Z,6.20
2023-02-24T10:50:32.095Z,5.60
2023-02-24T10:53:26.387Z,5.60
2023-02-24T10:56:15.215Z,5.50
2023-02-24T10:58:56.848Z,5.90
2023-02-24T11:01:40.708Z,5.80
2023-02-24T11:04:23.563Z,6.00
2023-02-24T11:06:55.671Z,5.50
2023-02-24T11:09:44.314Z,5.70
2023-02-24T11:12:38.254Z,5.70
2023-02-24T11:15:33.720Z,5.90
2023-02-24T11:18:02.386Z,5.80
2023-02-24T11:20:48.353Z,5.70
2023-02-24T11:23:25.879Z,5.90
2023-02-24T11:26:01.014Z,5.80
2023-02-24T11:29:17.423Z,5.70
2023-02-24T11:32:15.228Z,5.80
2023-02-24T11:34:50.500Z,5.60
2023-02-24T11:37:37.144Z,5.40
2023-02-24T11:40:13.602Z,5.60
2023-02-24T11:42:46.110Z,5.20
2023-02-24T11:45:29.304Z,5.20
2023-02-24T11:48:04.033Z,5.50
2023-02-24T11:50:44.055Z,5.50
2023-02-24T11:53:26.386Z,5.60
2023-02-24T11:56:01.401Z,5.20
2023-02-24T11:58:39.504Z,5.00
2023-02-24T12:01:16.133Z,5.10
2023-02-24T12:03:54.160Z,5.40
2023-02-24T12:06:28.663Z,5.20
2023-02-24T12:09:05.738Z,5.30
2023-02-24T12:11:44.385Z,5.50
2023-02-24T12:14:23.419Z,5.70
2023-02-24T12:17:04.387Z,6.10
2023-02-24T12:19:39.229Z,6.20
2023-02-24T12:22:15.501Z,6.00
2023-02-24T12:24:49.800Z,5.70
2023-02-24T12:27:31.922Z,5.70
2023-02-24T12:30:23.667Z,5.80
2023-02-24T12:33:02.534Z,5.90
2023-02-24T12:35:38.807Z,5.70
2023-02-24T12:38:19.530Z,5.80
2023-02-24T12:40:57.370Z,5.80
2023-02-24T12:43:34.808Z,5.20
2023-02-24T12:46:09.322Z,5.30
2023-02-24T12:49:17.892Z,5.00
2023-02-24T12:51:58.478Z,5.10
2023-02-24T12:54:32.027Z,4.80
2023-02-24T12:57:10.163Z,5.00
2023-02-24T12:59:41.740Z,5.20
2023-02-24T13:02:18.840Z,5.20
2023-02-24T13:04:57.717Z,5.20
2023-02-24T13:07:44.041Z,5.20
2023-02-24T13:10:32.086Z,5.20
2023-02-24T13:13:12.109Z,5.00
2023-02-24T13:15:51.643Z,4.90
2023-02-24T13:18:28.949Z,5.20
2023-02-24T13:21:22.710Z,4.90
2023-02-24T13:23:58.220Z,5.00
2023-02-24T13:26:29.566Z,4.90
2023-02-24T13:29:04.351Z,4.90
2023-02-24T13:31:43.328Z,4.90
2023-02-24T13:34:33.279Z,4.90
2023-02-24T13:37:02.899Z,5.10
2023-02-24T13:39:35.817Z,5.20
2023-02-24T13:42:07.315Z,4.90
2023-02-24T13:44:38.031Z,4.50
2023-02-24T13:47:32.511Z,4.80
2023-02-24T13:50:19.677Z,5.00
2023-02-24T13:53:12.289Z,4.70
2023-02-24T13:55:52.362Z,4.90
2023-02-24T13:59:08.221Z,4.70
2023-02-24T14:01:48.612Z,5.00
2023-02-24T14:04:19.540Z,5.10
2023-02-24T14:06:51.432Z,5.00
2023-02-24T14:09:24.796Z,5.10
2023-02-24T14:11:59.029Z,5.10
2023-02-24T14:14:29.072Z,5.10
2023-02-24T14:16:58.600Z,5.00
2023-02-24T14:19:27.350Z,5.10
2023-02-24T14:21:58.088Z,5.00
2023-02-24T14:24:29.144Z,5.00
2023-02-24T14:26:59.856Z,5.20
2023-02-24T14:29:32.390Z,5.30
2023-02-24T14:32:01.363Z,5.40
2023-02-24T14:34:34.644Z,5.40
2023-02-24T14:37:05.681Z,5.50
2023-02-24T14:39:35.985Z,5.70
2023-02-24T14:42:22.404Z,5.70
2023-02-24T14:44:54.569Z,5.40
2023-02-24T14:47:25.806Z,5.20
2023-02-24T14:49:58.091Z,5.30
2023-02-24T14:52:33.106Z,5.20
2023-02-24T14:55:07.086Z,5.20
2023-02-24T14:57:40.542Z,5.10
2023-02-24T15:00:17.307Z,5.50
2023-02-24T15:02:50.414Z,5.20
2023-02-24T15:05:18.811Z,5.20
2023-02-24T15:07:51.653Z,5.30
2023-02-24T15:10:26.853Z,5.20
2023-02-24T15:13:00.646Z,5.60
2023-02-24T15:15:34.493Z,5.50
2023-02-24T15:18:12.045Z,5.50
2023-02-24T15:20:42.175Z,5.70
2023-02-24T15:23:27.505Z,5.80
2023-02-24T15:25:56.937Z,5.60
2023-02-24T15:28:31.243Z,5.70
2023-02-24T15:31:02.985Z,5.60
2023-02-24T15:33:36.465Z,5.60
2023-02-24T15:36:12.783Z,5.60
2023-02-24T15:38:44.097Z,5.90
2023-02-24T15:41:15.375Z,5.60
2023-02-24T15:43:50.552Z,5.60
2023-02-24T15:46:26.353Z,5.80
2023-02-24T15:48:55.881Z,5.80
2023-02-24T15:51:33.054Z,6.00
2023-02-24T15:54:02.350Z,6.00
2023-02-24T15:56:34.702Z,6.20
2023-02-24T15:59:03.068Z,6.30
2023-02-24T16:01:32.515Z,6.10
2023-02-24T16:04:01.740Z,6.10
2023-02-24T16:06:30.021Z,6.40
2023-02-24T16:08:59.875Z,6.80
2023-02-24T16:11:38.570Z,6.90
2023-02-24T16:14:06.845Z,6.60
2023-02-24T16:16:34.909Z,6.50
2023-02-24T16:19:03.026Z,6.50
2023-02-24T16:21:32.025Z,6.50
2023-02-24T16:24:00.103Z,6.60
2023-02-24T16:26:28.588Z,6.70
2023-02-24T16:28:59.929Z,6.80
2023-02-24T16:31:29.015Z,6.90
2023-02-24T16:33:58.339Z,7.00
2023-02-24T16:36:28.990Z,7.10
2023-02-24T16:38:57.155Z,7.10
2023-02-24T16:41:26.151Z,6.90
2023-02-24T16:43:56.690Z,6.70
2023-02-24T16:46:27.976Z,6.70
2023-02-24T16:48:56.567Z,6.80
2023-02-24T16:51:24.598Z,6.80
2023-02-24T16:53:53.063Z,6.80
2023-02-24T16:56:21.870Z,6.90
2023-02-24T16:58:50.605Z,6.90
2023-02-24T17:01:22.330Z,7.00
2023-02-24T17:03:54.742Z,7.00
2023-02-24T17:06:26.588Z,7.10
2023-02-24T17:08:55.884Z,7.30
2023-02-24T17:11:30.172Z,7.40
2023-02-24T17:13:58.638Z,7.40
2023-02-24T17:16:28.796Z,7.20
2023-02-24T17:18:58.973Z,7.00
2023-02-24T17:21:27.013Z,6.90
2023-02-24T17:23:54.965Z,7.10
2023-02-24T17:26:24.392Z,7.00
2023-02-24T17:28:52.573Z,7.20
2023-02-24T17:31:21.150Z,7.10
2023-02-24T17:33:50.908Z,7.10
2023-02-24T17:36:20.784Z,7.10
2023-02-24T17:38:50.633Z,7.20
2023-02-24T17:41:18.693Z,7.30
2023-02-24T17:43:46.763Z,7.20
2023-02-24T17:46:15.284Z,7.20
2023-02-24T17:48:44.106Z,7.20
2023-02-24T17:51:15.210Z,7.40
2023-02-24T17:53:45.192Z,7.30
2023-02-24T17:56:13.605Z,7.30
2023-02-24T17:58:41.849Z,7.30
2023-02-24T18:01:13.598Z,7.20
2023-02-24T18:03:41.603Z,7.10
2023-02-24T18:06:12.055Z,6.90
2023-02-24T18:08:41.578Z,6.80
2023-02-24T18:11:17.636Z,6.80
2023-02-24T18:13:47.415Z,7.00
2023-02-24T18:16:17.819Z,6.90
2023-02-24T18:18:46.048Z,6.90
2023-02-24T18:21:14.114Z,6.80
2023-02-24T18:23:43.612Z,6.70
2023-02-24T18:26:13.962Z,6.80
2023-02-24T18:28:43.625Z,6.70
2023-02-24T18:31:13.613Z,6.50
2023-02-24T18:33:41.877Z,6.60
2023-02-24T18:36:12.149Z,6.50
2023-02-24T18:38:40.638Z,6.60
2023-02-24T18:41:11.002Z,6.70
2023-02-24T18:43:41.525Z,6.70
2023-02-24T18:46:13.757Z,6.90
2023-02-24T18:48:44.363Z,6.90
2023-02-24T18:51:13.420Z,7.00
2023-02-24T18:53:41.807Z,7.00
2023-02-24T18:56:12.318Z,7.20
2023-02-24T18:58:42.755Z,7.00
2023-02-24T19:01:12.961Z,7.00
2023-02-24T19:03:41.300Z,7.00
2023-02-24T19:06:09.384Z,6.90
2023-02-24T19:08:39.574Z,6.80
2023-02-24T19:11:10.451Z,6.70
2023-02-24T19:13:39.264Z,6.50
2023-02-24T19:16:10.936Z,6.50
2023-02-24T19:18:39.192Z,6.30
2023-02-24T19:21:08.294Z,6.30
2023-02-24T19:23:39.844Z,6.20
2023-02-24T19:26:16.288Z,6.30
2023-02-24T19:28:45.016Z,6.30
2023-02-24T19:31:20.590Z,6.40
2023-02-24T19:33:53.732Z,6.50
2023-02-24T19:36:23.750Z,6.60
2023-02-24T19:38:52.718Z,6.90
2023-02-24T19:41:21.651Z,7.00
2023-02-24T19:43:50.014Z,6.90
2023-02-24T19:46:20.402Z,6.90
2023-02-24T19:48:49.471Z,7.00
2023-02-24T19:51:20.487Z,7.00
2023-02-24T19:53:52.610Z,7.20
2023-02-24T19:56:24.784Z,7.10
2023-02-24T19:58:54.718Z,6.90
2023-02-24T20:01:25.993Z,6.90
2023-02-24T20:03:56.992Z,6.80
2023-02-24T20:06:29.250Z,6.70
2023-02-24T20:09:01.945Z,6.50
2023-02-24T20:11:33.278Z,6.50
2023-02-24T20:14:01.889Z,6.40
2023-02-24T20:16:34.935Z,6.40
2023-02-24T20:19:04.304Z,6.50
2023-02-24T20:21:33.127Z,6.40
2023-02-24T20:24:01.971Z,6.30
2023-02-24T20:26:31.443Z,6.40
2023-02-24T20:29:00.880Z,6.30
2023-02-24T20:31:30.723Z,6.50
2023-02-24T20:34:00.196Z,6.50
2023-02-24T20:36:30.130Z,6.60
2023-02-24T20:39:00.150Z,6.70
2023-02-24T20:41:29.148Z,6.80
2023-02-24T20:43:57.164Z,6.90
2023-02-24T20:46:27.371Z,6.80
2023-02-24T20:48:58.710Z,6.60
2023-02-24T20:51:29.319Z,6.50
2023-02-24T20:53:58.730Z,6.60
2023-02-24T20:56:28.177Z,6.70
2023-02-24T20:59:01.194Z,6.70
2023-02-24T21:01:30.843Z,6.60
2023-02-24T21:03:59.969Z,6.80
2023-02-24T21:06:32.572Z,6.90
2023-02-24T21:09:00.650Z,6.90
2023-02-24T21:11:30.347Z,7.00
2023-02-24T21:13:59.475Z,7.10
2023-02-24T21:16:28.340Z,7.20
2023-02-24T21:18:59.383Z,7.20
2023-02-24T21:21:31.013Z,7.20
2023-02-24T21:23:59.502Z,7.20
2023-02-24T21:26:29.090Z,7.20
2023-02-24T21:28:59.201Z,7.20
2023-02-24T21:31:28.709Z,7.20
2023-02-24T21:33:57.751Z,7.00
2023-02-24T21:36:28.309Z,6.80
2023-02-24T21:38:57.776Z,6.70
2023-02-24T21:41:25.848Z,6.60
2023-02-24T21:43:56.076Z,6.60
2023-02-24T21:46:28.003Z,6.50
2023-02-24T21:48:57.037Z,6.50
2023-02-24T21:51:25.960Z,6.40
2023-02-24T21:53:56.562Z,6.40
2023-02-24T21:56:28.394Z,6.50
2023-02-24T21:59:00.743Z,6.40
2023-02-24T22:01:35.467Z,6.50
2023-02-24T22:04:05.604Z,6.50
2023-02-24T22:06:36.599Z,6.60
2023-02-24T22:09:07.032Z,6.60
2023-02-24T22:11:39.159Z,6.50
2023-02-24T22:14:09.289Z,6.60
2023-02-24T22:16:41.057Z,6.30
2023-02-24T22:19:10.340Z,6.20
2023-02-24T22:21:39.997Z,6.30
2023-02-24T22:24:11.421Z,6.30
2023-02-24T22:26:41.807Z,6.40
2023-02-24T22:29:10.742Z,6.40
2023-02-24T22:31:39.732Z,6.40
2023-02-24T22:34:09.228Z,6.30
2023-02-24T22:36:38.696Z,6.10
2023-02-24T22:39:09.442Z,6.00
2023-02-24T22:41:38.345Z,6.10
2023-02-24T22:44:07.734Z,6.10
2023-02-24T22:46:38.031Z,6.20
2023-02-24T22:49:07.515Z,6.30
2023-02-24T22:51:37.020Z,6.30
2023-02-24T22:54:06.176Z,6.40
2023-02-24T22:56:34.718Z,6.40
2023-02-24T22:59:03.530Z,6.50
2023-02-24T23:01:36.761Z,6.70
2023-02-24T23:04:07.359Z,6.60
2023-02-24T23:06:36.805Z,6.50
2023-02-24T23:09:05.991Z,6.50
2023-02-24T23:11:39.071Z,6.40
2023-02-24T23:14:10.667Z,6.40
2023-02-24T23:16:44.778Z,6.50
2023-02-24T23:19:17.888Z,6.60
2023-02-24T23:21:48.667Z,6.70
2023-02-24T23:24:18.880Z,6.50
2023-02-24T23:26:53.658Z,6.50
2023-02-24T23:29:23.361Z,6.40
2023-02-24T23:31:53.224Z,6.40
2023-02-24T23:34:21.537Z,6.50
2023-02-24T23:36:49.638Z,6.50
2023-02-24T23:39:21.316Z,6.60
2023-02-24T23:41:57.108Z,6.50
2023-02-24T23:44:26.193Z,6.20
2023-02-24T23:46:58.443Z,6.10
2023-02-24T23:49:36.141Z,6.10
2023-02-24T23:52:12.816Z,6.20
2023-02-24T23:54:40.810Z,6.10
2023-02-24T23:57:09.720Z,6.00
2023-02-24T23:59:39.679Z,6.10
